sensor_id;sensor_type;location;lat;lon;timestamp;pressure;altitude;pressure_sealevel;temperature
22322;BMP180;11328;53.928;18.522;2023-06-14T00:00:49;100638.00;;;16.90
22322;BMP180;11328;53.928;18.522;2023-06-14T00:03:16;100642.00;;;16.90
22322;BMP180;11328;53.928;18.522;2023-06-14T00:05:44;100638.00;;;16.90
22322;BMP180;11328;53.928;18.522;2023-06-14T00:08:14;100638.00;;;16.90
22322;BMP180;11328;53.928;18.522;2023-06-14T00:10:41;100631.00;;;16.90
22322;BMP180;11328;53.928;18.522;2023-06-14T00:13:10;100637.00;;;17.00
22322;BMP180;11328;53.928;18.522;2023-06-14T00:15:37;100637.00;;;17.00
22322;BMP180;11328;53.928;18.522;2023-06-14T00:18:05;100642.00;;;16.90
22322;BMP180;11328;53.928;18.522;2023-06-14T00:20:33;100638.00;;;16.90
22322;BMP180;11328;53.928;18.522;2023-06-14T00:23:01;100637.00;;;16.90
22322;BMP180;11328;53.928;18.522;2023-06-14T00:25:28;100643.00;;;17.00
22322;BMP180;11328;53.928;18.522;2023-06-14T00:27:57;100636.00;;;17.00
22322;BMP180;11328;53.928;18.522;2023-06-14T00:30:25;100632.00;;;17.00
22322;BMP180;11328;53.928;18.522;2023-06-14T00:32:57;100632.00;;;17.00
22322;BMP180;11328;53.928;18.522;2023-06-14T00:35:25;100636.00;;;17.10
22322;BMP180;11328;53.928;18.522;2023-06-14T00:37:52;100633.00;;;17.00
22322;BMP180;11328;53.928;18.522;2023-06-14T00:40:22;100631.00;;;17.10
22322;BMP180;11328;53.928;18.522;2023-06-14T00:42:49;100614.00;;;17.10
22322;BMP180;11328;53.928;18.522;2023-06-14T00:45:16;100623.00;;;17.20
22322;BMP180;11328;53.928;18.522;2023-06-14T00:47:45;100626.00;;;17.20
22322;BMP180;11328;53.928;18.522;2023-06-14T00:50:13;100628.00;;;17.20
22322;BMP180;11328;53.928;18.522;2023-06-14T00:52:40;100622.00;;;17.00
22322;BMP180;11328;53.928;18.522;2023-06-14T00:55:08;100635.00;;;17.20
22322;BMP180;11328;53.928;18.522;2023-06-14T00:57:35;100621.00;;;17.20
22322;BMP180;11328;53.928;18.522;2023-06-14T01:00:05;100621.00;;;17.30
22322;BMP180;11328;53.928;18.522;2023-06-14T01:02:39;100630.00;;;17.40
22322;BMP180;11328;53.928;18.522;2023-06-14T01:05:08;100638.00;;;17.50
22322;BMP180;11328;53.928;18.522;2023-06-14T01:13:45;100636.00;;;17.50
22322;BMP180;11328;53.928;18.522;2023-06-14T01:16:12;100635.00;;;17.60
22322;BMP180;11328;53.928;18.522;2023-06-14T01:18:41;100626.00;;;17.60
22322;BMP180;11328;53.928;18.522;2023-06-14T01:21:24;100625.00;;;17.60
22322;BMP180;11328;53.928;18.522;2023-06-14T01:23:52;100634.00;;;17.50
22322;BMP180;11328;53.928;18.522;2023-06-14T01:26:23;100620.00;;;17.50
22322;BMP180;11328;53.928;18.522;2023-06-14T01:28:51;100612.00;;;17.50
22322;BMP180;11328;53.928;18.522;2023-06-14T01:31:21;100609.00;;;17.40
22322;BMP180;11328;53.928;18.522;2023-06-14T01:33:51;100599.00;;;17.40
22322;BMP180;11328;53.928;18.522;2023-06-14T01:36:22;100601.00;;;17.40
22322;BMP180;11328;53.928;18.522;2023-06-14T01:38:51;100611.00;;;17.50
22322;BMP180;11328;53.928;18.522;2023-06-14T01:41:20;100606.00;;;17.50
22322;BMP180;11328;53.928;18.522;2023-06-14T01:43:49;100606.00;;;17.40
22322;BMP180;11328;53.928;18.522;2023-06-14T01:46:17;100611.00;;;17.50
22322;BMP180;11328;53.928;18.522;2023-06-14T01:48:46;100612.00;;;17.60
22322;BMP180;11328;53.928;18.522;2023-06-14T01:51:13;100609.00;;;17.60
22322;BMP180;11328;53.928;18.522;2023-06-14T01:53:40;100610.00;;;17.60
22322;BMP180;11328;53.928;18.522;2023-06-14T01:56:07;100617.00;;;17.60
22322;BMP180;11328;53.928;18.522;2023-06-14T01:58:34;100624.00;;;17.70
22322;BMP180;11328;53.928;18.522;2023-06-14T02:01:02;100624.00;;;17.70
22322;BMP180;11328;53.928;18.522;2023-06-14T02:03:29;100624.00;;;17.70
22322;BMP180;11328;53.928;18.522;2023-06-14T02:05:56;100624.00;;;17.70
22322;BMP180;11328;53.928;18.522;2023-06-14T02:08:24;100617.00;;;17.60
22322;BMP180;11328;53.928;18.522;2023-06-14T02:10:52;100623.00;;;17.70
22322;BMP180;11328;53.928;18.522;2023-06-14T02:13:19;100616.00;;;17.60
22322;BMP180;11328;53.928;18.522;2023-06-14T02:15:46;100614.00;;;17.50
22322;BMP180;11328;53.928;18.522;2023-06-14T02:18:13;100603.00;;;17.50
22322;BMP180;11328;53.928;18.522;2023-06-14T02:20:40;100601.00;;;17.40
22322;BMP180;11328;53.928;18.522;2023-06-14T02:23:07;100598.00;;;17.20
22322;BMP180;11328;53.928;18.522;2023-06-14T02:25:34;100606.00;;;17.00
22322;BMP180;11328;53.928;18.522;2023-06-14T02:28:02;100598.00;;;16.90
22322;BMP180;11328;53.928;18.522;2023-06-14T02:30:29;100609.00;;;16.80
22322;BMP180;11328;53.928;18.522;2023-06-14T02:32:56;100605.00;;;16.80
22322;BMP180;11328;53.928;18.522;2023-06-14T02:35:23;100612.00;;;16.70
22322;BMP180;11328;53.928;18.522;2023-06-14T02:37:53;100601.00;;;16.80
22322;BMP180;11328;53.928;18.522;2023-06-14T02:40:20;100608.00;;;16.90
22322;BMP180;11328;53.928;18.522;2023-06-14T02:42:47;100613.00;;;17.00
22322;BMP180;11328;53.928;18.522;2023-06-14T02:45:14;100625.00;;;17.10
22322;BMP180;11328;53.928;18.522;2023-06-14T02:47:41;100608.00;;;17.10
22322;BMP180;11328;53.928;18.522;2023-06-14T02:50:08;100608.00;;;17.20
22322;BMP180;11328;53.928;18.522;2023-06-14T02:52:36;100613.00;;;17.20
22322;BMP180;11328;53.928;18.522;2023-06-14T02:55:03;100609.00;;;17.30
22322;BMP180;11328;53.928;18.522;2023-06-14T02:57:30;100619.00;;;17.40
22322;BMP180;11328;53.928;18.522;2023-06-14T02:59:57;100614.00;;;17.30
22322;BMP180;11328;53.928;18.522;2023-06-14T03:02:24;100617.00;;;17.20
22322;BMP180;11328;53.928;18.522;2023-06-14T03:04:51;100610.00;;;17.20
22322;BMP180;11328;53.928;18.522;2023-06-14T03:07:17;100606.00;;;17.30
22322;BMP180;11328;53.928;18.522;2023-06-14T03:09:48;100613.00;;;17.30
22322;BMP180;11328;53.928;18.522;2023-06-14T03:12:15;100611.00;;;17.30
22322;BMP180;11328;53.928;18.522;2023-06-14T03:14:42;100613.00;;;17.30
22322;BMP180;11328;53.928;18.522;2023-06-14T03:17:09;100611.00;;;17.30
22322;BMP180;11328;53.928;18.522;2023-06-14T03:19:37;100625.00;;;17.10
22322;BMP180;11328;53.928;18.522;2023-06-14T03:22:04;100617.00;;;17.10
22322;BMP180;11328;53.928;18.522;2023-06-14T03:24:34;100623.00;;;17.20
22322;BMP180;11328;53.928;18.522;2023-06-14T03:27:04;100606.00;;;17.20
22322;BMP180;11328;53.928;18.522;2023-06-14T03:29:30;100616.00;;;17.20
22322;BMP180;11328;53.928;18.522;2023-06-14T03:32:03;100618.00;;;17.20
22322;BMP180;11328;53.928;18.522;2023-06-14T03:34:30;100616.00;;;17.20
22322;BMP180;11328;53.928;18.522;2023-06-14T03:36:57;100616.00;;;17.20
22322;BMP180;11328;53.928;18.522;2023-06-14T03:39:24;100620.00;;;17.10
22322;BMP180;11328;53.928;18.522;2023-06-14T03:41:51;100614.00;;;17.10
22322;BMP180;11328;53.928;18.522;2023-06-14T03:44:18;100601.00;;;17.20
22322;BMP180;11328;53.928;18.522;2023-06-14T03:46:46;100615.00;;;17.30
22322;BMP180;11328;53.928;18.522;2023-06-14T03:49:13;100615.00;;;17.30
22322;BMP180;11328;53.928;18.522;2023-06-14T03:51:40;100612.00;;;17.30
22322;BMP180;11328;53.928;18.522;2023-06-14T03:54:08;100606.00;;;17.20
22322;BMP180;11328;53.928;18.522;2023-06-14T03:56:38;100612.00;;;17.30
22322;BMP180;11328;53.928;18.522;2023-06-14T03:59:05;100603.00;;;17.30
22322;BMP180;11328;53.928;18.522;2023-06-14T04:01:32;100601.00;;;17.40
22322;BMP180;11328;53.928;18.522;2023-06-14T04:04:00;100606.00;;;17.50
22322;BMP180;11328;53.928;18.522;2023-06-14T04:06:28;100603.00;;;17.50
22322;BMP180;11328;53.928;18.522;2023-06-14T04:09:00;100592.00;;;17.60
22322;BMP180;11328;53.928;18.522;2023-06-14T04:11:30;100609.00;;;17.60
22322;BMP180;11328;53.928;18.522;2023-06-14T04:13:58;100602.00;;;17.50
22322;BMP180;11328;53.928;18.522;2023-06-14T04:16:26;100604.00;;;17.50
22322;BMP180;11328;53.928;18.522;2023-06-14T04:18:55;100606.00;;;17.60
22322;BMP180;11328;53.928;18.522;2023-06-14T04:21:22;100611.00;;;17.60
22322;BMP180;11328;53.928;18.522;2023-06-14T04:23:49;100601.00;;;17.60
22322;BMP180;11328;53.928;18.522;2023-06-14T04:26:19;100599.00;;;17.60
22322;BMP180;11328;53.928;18.522;2023-06-14T04:28:49;100596.00;;;17.70
22322;BMP180;11328;53.928;18.522;2023-06-14T04:31:17;100597.00;;;17.80
22322;BMP180;11328;53.928;18.522;2023-06-14T04:33:45;100598.00;;;17.90
22322;BMP180;11328;53.928;18.522;2023-06-14T04:36:13;100597.00;;;17.90
22322;BMP180;11328;53.928;18.522;2023-06-14T04:38:40;100605.00;;;18.00
22322;BMP180;11328;53.928;18.522;2023-06-14T04:41:08;100599.00;;;18.00
22322;BMP180;11328;53.928;18.522;2023-06-14T04:43:38;100597.00;;;18.10
22322;BMP180;11328;53.928;18.522;2023-06-14T04:46:05;100602.00;;;18.10
22322;BMP180;11328;53.928;18.522;2023-06-14T04:48:39;100610.00;;;18.00
22322;BMP180;11328;53.928;18.522;2023-06-14T04:51:08;100606.00;;;18.20
22322;BMP180;11328;53.928;18.522;2023-06-14T04:53:36;100600.00;;;18.30
22322;BMP180;11328;53.928;18.522;2023-06-14T04:56:04;100599.00;;;18.40
22322;BMP180;11328;53.928;18.522;2023-06-14T04:58:31;100605.00;;;18.60
22322;BMP180;11328;53.928;18.522;2023-06-14T05:00:59;100609.00;;;18.90
22322;BMP180;11328;53.928;18.522;2023-06-14T05:03:26;100604.00;;;19.00
22322;BMP180;11328;53.928;18.522;2023-06-14T05:05:54;100612.00;;;19.20
22322;BMP180;11328;53.928;18.522;2023-06-14T05:08:22;100611.00;;;19.40
22322;BMP180;11328;53.928;18.522;2023-06-14T05:10:52;100621.00;;;19.70
22322;BMP180;11328;53.928;18.522;2023-06-14T05:13:19;100610.00;;;20.00
22322;BMP180;11328;53.928;18.522;2023-06-14T05:15:48;100604.00;;;20.30
22322;BMP180;11328;53.928;18.522;2023-06-14T05:18:15;100604.00;;;20.50
22322;BMP180;11328;53.928;18.522;2023-06-14T05:20:43;100597.00;;;20.70
22322;BMP180;11328;53.928;18.522;2023-06-14T05:23:10;100601.00;;;21.10
22322;BMP180;11328;53.928;18.522;2023-06-14T05:25:44;100608.00;;;21.10
22322;BMP180;11328;53.928;18.522;2023-06-14T05:28:12;100604.00;;;21.10
22322;BMP180;11328;53.928;18.522;2023-06-14T05:30:39;100606.00;;;21.30
22322;BMP180;11328;53.928;18.522;2023-06-14T05:33:06;100602.00;;;21.60
22322;BMP180;11328;53.928;18.522;2023-06-14T05:35:34;100604.00;;;21.80
22322;BMP180;11328;53.928;18.522;2023-06-14T05:38:01;100610.00;;;21.80
22322;BMP180;11328;53.928;18.522;2023-06-14T05:40:28;100605.00;;;21.80
22322;BMP180;11328;53.928;18.522;2023-06-14T05:42:55;100576.00;;;21.80
22322;BMP180;11328;53.928;18.522;2023-06-14T05:45:22;100602.00;;;21.70
22322;BMP180;11328;53.928;18.522;2023-06-14T05:47:49;100600.00;;;21.70
22322;BMP180;11328;53.928;18.522;2023-06-14T05:50:17;100596.00;;;21.90
22322;BMP180;11328;53.928;18.522;2023-06-14T05:52:44;100596.00;;;22.30
22322;BMP180;11328;53.928;18.522;2023-06-14T05:55:11;100595.00;;;22.70
22322;BMP180;11328;53.928;18.522;2023-06-14T05:57:40;100597.00;;;23.00
22322;BMP180;11328;53.928;18.522;2023-06-14T06:00:08;100538.00;;;23.40
22322;BMP180;11328;53.928;18.522;2023-06-14T06:02:37;100602.00;;;23.40
22322;BMP180;11328;53.928;18.522;2023-06-14T06:05:05;100603.00;;;23.30
22322;BMP180;11328;53.928;18.522;2023-06-14T06:07:32;100603.00;;;23.40
22322;BMP180;11328;53.928;18.522;2023-06-14T06:10:04;100601.00;;;23.50
22322;BMP180;11328;53.928;18.522;2023-06-14T06:12:32;100596.00;;;23.50
22322;BMP180;11328;53.928;18.522;2023-06-14T06:14:59;100604.00;;;23.50
22322;BMP180;11328;53.928;18.522;2023-06-14T06:17:26;100603.00;;;23.60
22322;BMP180;11328;53.928;18.522;2023-06-14T06:20:08;100596.00;;;23.60
22322;BMP180;11328;53.928;18.522;2023-06-14T06:22:36;100606.00;;;23.60
22322;BMP180;11328;53.928;18.522;2023-06-14T06:25:03;100611.00;;;23.50
22322;BMP180;11328;53.928;18.522;2023-06-14T06:27:31;100621.00;;;23.70
22322;BMP180;11328;53.928;18.522;2023-06-14T06:29:58;100625.00;;;24.00
22322;BMP180;11328;53.928;18.522;2023-06-14T06:32:25;100616.00;;;24.60
22322;BMP180;11328;53.928;18.522;2023-06-14T06:34:52;100618.00;;;24.80
22322;BMP180;11328;53.928;18.522;2023-06-14T06:37:19;100608.00;;;25.20
22322;BMP180;11328;53.928;18.522;2023-06-14T06:39:46;100606.00;;;25.30
22322;BMP180;11328;53.928;18.522;2023-06-14T06:42:14;100622.00;;;25.70
22322;BMP180;11328;53.928;18.522;2023-06-14T06:44:41;100620.00;;;25.60
22322;BMP180;11328;53.928;18.522;2023-06-14T06:47:08;100614.00;;;25.50
22322;BMP180;11328;53.928;18.522;2023-06-14T06:49:37;100606.00;;;25.50
22322;BMP180;11328;53.928;18.522;2023-06-14T06:52:06;100611.00;;;25.30
22322;BMP180;11328;53.928;18.522;2023-06-14T06:54:34;100609.00;;;25.70
22322;BMP180;11328;53.928;18.522;2023-06-14T06:57:01;100608.00;;;25.70
22322;BMP180;11328;53.928;18.522;2023-06-14T06:59:28;100620.00;;;26.20
22322;BMP180;11328;53.928;18.522;2023-06-14T07:01:55;100614.00;;;26.60
22322;BMP180;11328;53.928;18.522;2023-06-14T07:04:22;100608.00;;;27.00
22322;BMP180;11328;53.928;18.522;2023-06-14T07:06:49;100616.00;;;26.70
22322;BMP180;11328;53.928;18.522;2023-06-14T07:09:17;100624.00;;;26.40
22322;BMP180;11328;53.928;18.522;2023-06-14T07:11:44;100623.00;;;26.00
22322;BMP180;11328;53.928;18.522;2023-06-14T07:14:12;100622.00;;;26.20
22322;BMP180;11328;53.928;18.522;2023-06-14T07:16:39;100610.00;;;26.00
22322;BMP180;11328;53.928;18.522;2023-06-14T07:19:08;100630.00;;;26.10
22322;BMP180;11328;53.928;18.522;2023-06-14T07:21:36;100631.00;;;26.10
22322;BMP180;11328;53.928;18.522;2023-06-14T07:24:06;100630.00;;;25.90
22322;BMP180;11328;53.928;18.522;2023-06-14T07:26:35;100612.00;;;25.70
22322;BMP180;11328;53.928;18.522;2023-06-14T07:29:02;100644.00;;;25.70
22322;BMP180;11328;53.928;18.522;2023-06-14T07:31:29;100629.00;;;25.70
22322;BMP180;11328;53.928;18.522;2023-06-14T07:33:57;100632.00;;;25.90
22322;BMP180;11328;53.928;18.522;2023-06-14T07:36:24;100637.00;;;25.90
22322;BMP180;11328;53.928;18.522;2023-06-14T07:38:52;100635.00;;;25.80
22322;BMP180;11328;53.928;18.522;2023-06-14T07:41:19;100638.00;;;25.50
22322;BMP180;11328;53.928;18.522;2023-06-14T07:43:46;100638.00;;;25.30
22322;BMP180;11328;53.928;18.522;2023-06-14T07:46:15;100635.00;;;25.20
22322;BMP180;11328;53.928;18.522;2023-06-14T07:48:41;100642.00;;;25.30
22322;BMP180;11328;53.928;18.522;2023-06-14T07:51:09;100631.00;;;25.20
22322;BMP180;11328;53.928;18.522;2023-06-14T07:53:36;100637.00;;;25.30
22322;BMP180;11328;53.928;18.522;2023-06-14T07:56:03;100637.00;;;25.80
22322;BMP180;11328;53.928;18.522;2023-06-14T07:58:30;100623.00;;;26.10
22322;BMP180;11328;53.928;18.522;2023-06-14T08:00:57;100609.00;;;26.60
22322;BMP180;11328;53.928;18.522;2023-06-14T08:03:24;100622.00;;;27.20
22322;BMP180;11328;53.928;18.522;2023-06-14T08:05:52;100623.00;;;27.20
22322;BMP180;11328;53.928;18.522;2023-06-14T08:08:19;100624.00;;;27.10
22322;BMP180;11328;53.928;18.522;2023-06-14T08:10:46;100625.00;;;27.10
22322;BMP180;11328;53.928;18.522;2023-06-14T08:13:13;100626.00;;;27.10
22322;BMP180;11328;53.928;18.522;2023-06-14T08:15:40;100627.00;;;27.10
22322;BMP180;11328;53.928;18.522;2023-06-14T08:18:06;100635.00;;;26.90
22322;BMP180;11328;53.928;18.522;2023-06-14T08:20:33;100634.00;;;26.80
22322;BMP180;11328;53.928;18.522;2023-06-14T08:23:04;100630.00;;;26.70
22322;BMP180;11328;53.928;18.522;2023-06-14T08:25:31;100620.00;;;26.50
22322;BMP180;11328;53.928;18.522;2023-06-14T08:27:59;100611.00;;;27.00
22322;BMP180;11328;53.928;18.522;2023-06-14T08:30:26;100621.00;;;27.40
22322;BMP180;11328;53.928;18.522;2023-06-14T08:32:53;100618.00;;;27.50
22322;BMP180;11328;53.928;18.522;2023-06-14T08:35:40;100619.00;;;28.10
22322;BMP180;11328;53.928;18.522;2023-06-14T08:38:07;100615.00;;;28.20
22322;BMP180;11328;53.928;18.522;2023-06-14T08:40:37;100621.00;;;28.40
22322;BMP180;11328;53.928;18.522;2023-06-14T08:43:05;100594.00;;;28.60
22322;BMP180;11328;53.928;18.522;2023-06-14T08:45:32;100611.00;;;28.70
22322;BMP180;11328;53.928;18.522;2023-06-14T08:47:59;100617.00;;;28.40
22322;BMP180;11328;53.928;18.522;2023-06-14T08:50:28;100620.00;;;28.50
22322;BMP180;11328;53.928;18.522;2023-06-14T08:52:59;100606.00;;;28.50
22322;BMP180;11328;53.928;18.522;2023-06-14T08:55:30;100609.00;;;28.60
22322;BMP180;11328;53.928;18.522;2023-06-14T08:58:02;100619.00;;;28.40
22322;BMP180;11328;53.928;18.522;2023-06-14T09:00:30;100619.00;;;28.20
22322;BMP180;11328;53.928;18.522;2023-06-14T09:02:59;100634.00;;;27.70
22322;BMP180;11328;53.928;18.522;2023-06-14T09:05:28;100634.00;;;27.60
22322;BMP180;11328;53.928;18.522;2023-06-14T09:07:55;100637.00;;;27.50
22322;BMP180;11328;53.928;18.522;2023-06-14T09:10:32;100638.00;;;27.30
22322;BMP180;11328;53.928;18.522;2023-06-14T09:13:05;100636.00;;;27.10
22322;BMP180;11328;53.928;18.522;2023-06-14T09:15:34;100631.00;;;27.20
22322;BMP180;11328;53.928;18.522;2023-06-14T09:18:02;100630.00;;;27.10
22322;BMP180;11328;53.928;18.522;2023-06-14T09:20:31;100623.00;;;27.20
22322;BMP180;11328;53.928;18.522;2023-06-14T09:23:01;100637.00;;;27.10
22322;BMP180;11328;53.928;18.522;2023-06-14T09:25:28;100621.00;;;26.80
22322;BMP180;11328;53.928;18.522;2023-06-14T09:27:57;100625.00;;;26.90
22322;BMP180;11328;53.928;18.522;2023-06-14T09:30:24;100634.00;;;26.80
22322;BMP180;11328;53.928;18.522;2023-06-14T09:32:51;100619.00;;;26.20
22322;BMP180;11328;53.928;18.522;2023-06-14T09:35:18;100626.00;;;26.00
22322;BMP180;11328;53.928;18.522;2023-06-14T09:37:45;100612.00;;;26.20
22322;BMP180;11328;53.928;18.522;2023-06-14T09:40:13;100622.00;;;26.00
22322;BMP180;11328;53.928;18.522;2023-06-14T09:42:40;100631.00;;;25.80
22322;BMP180;11328;53.928;18.522;2023-06-14T09:45:09;100618.00;;;25.60
22322;BMP180;11328;53.928;18.522;2023-06-14T09:47:39;100625.00;;;25.70
22322;BMP180;11328;53.928;18.522;2023-06-14T09:50:18;100621.00;;;25.90
22322;BMP180;11328;53.928;18.522;2023-06-14T09:52:50;100632.00;;;26.30
22322;BMP180;11328;53.928;18.522;2023-06-14T09:55:19;100631.00;;;26.10
22322;BMP180;11328;53.928;18.522;2023-06-14T09:57:47;100622.00;;;26.40
22322;BMP180;11328;53.928;18.522;2023-06-14T10:00:16;100634.00;;;26.60
22322;BMP180;11328;53.928;18.522;2023-06-14T10:02:54;100625.00;;;26.60
22322;BMP180;11328;53.928;18.522;2023-06-14T10:05:24;100626.00;;;26.80
22322;BMP180;11328;53.928;18.522;2023-06-14T10:08:04;100637.00;;;26.80
22322;BMP180;11328;53.928;18.522;2023-06-14T10:10:34;100638.00;;;26.70
22322;BMP180;11328;53.928;18.522;2023-06-14T10:13:01;100621.00;;;26.50
22322;BMP180;11328;53.928;18.522;2023-06-14T10:15:51;100640.00;;;26.40
22322;BMP180;11328;53.928;18.522;2023-06-14T10:24:48;100643.00;;;26.10
22322;BMP180;11328;53.928;18.522;2023-06-14T10:27:18;100647.00;;;26.10
22322;BMP180;11328;53.928;18.522;2023-06-14T10:32:27;100645.00;;;25.80
22322;BMP180;11328;53.928;18.522;2023-06-14T10:35:05;100642.00;;;25.80
22322;BMP180;11328;53.928;18.522;2023-06-14T10:37:33;100646.00;;;26.10
22322;BMP180;11328;53.928;18.522;2023-06-14T10:40:00;100641.00;;;26.20
22322;BMP180;11328;53.928;18.522;2023-06-14T10:42:33;100644.00;;;26.20
22322;BMP180;11328;53.928;18.522;2023-06-14T10:45:01;100630.00;;;26.20
22322;BMP180;11328;53.928;18.522;2023-06-14T10:47:33;100641.00;;;26.10
22322;BMP180;11328;53.928;18.522;2023-06-14T10:50:06;100646.00;;;26.00
22322;BMP180;11328;53.928;18.522;2023-06-14T10:52:39;100622.00;;;25.70
22322;BMP180;11328;53.928;18.522;2023-06-14T10:55:14;100647.00;;;25.60
22322;BMP180;11328;53.928;18.522;2023-06-14T10:57:46;100639.00;;;25.80
22322;BMP180;11328;53.928;18.522;2023-06-14T11:00:21;100640.00;;;26.00
22322;BMP180;11328;53.928;18.522;2023-06-14T11:03:33;100644.00;;;26.20
22322;BMP180;11328;53.928;18.522;2023-06-14T11:06:14;100630.00;;;26.20
22322;BMP180;11328;53.928;18.522;2023-06-14T11:11:47;100643.00;;;26.40
22322;BMP180;11328;53.928;18.522;2023-06-14T11:14:15;100645.00;;;26.50
22322;BMP180;11328;53.928;18.522;2023-06-14T11:16:49;100622.00;;;26.30
22322;BMP180;11328;53.928;18.522;2023-06-14T11:19:16;100634.00;;;26.10
22322;BMP180;11328;53.928;18.522;2023-06-14T11:21:48;100638.00;;;26.20
22322;BMP180;11328;53.928;18.522;2023-06-14T11:24:16;100630.00;;;26.20
22322;BMP180;11328;53.928;18.522;2023-06-14T11:26:44;100626.00;;;26.40
22322;BMP180;11328;53.928;18.522;2023-06-14T11:29:11;100624.00;;;26.50
22322;BMP180;11328;53.928;18.522;2023-06-14T11:31:44;100627.00;;;26.50
22322;BMP180;11328;53.928;18.522;2023-06-14T11:34:12;100630.00;;;26.50
22322;BMP180;11328;53.928;18.522;2023-06-14T11:36:40;100624.00;;;26.70
22322;BMP180;11328;53.928;18.522;2023-06-14T11:39:09;100624.00;;;26.90
22322;BMP180;11328;53.928;18.522;2023-06-14T11:41:45;100626.00;;;26.60
22322;BMP180;11328;53.928;18.522;2023-06-14T11:44:12;100625.00;;;26.70
22322;BMP180;11328;53.928;18.522;2023-06-14T11:46:39;100614.00;;;26.80
22322;BMP180;11328;53.928;18.522;2023-06-14T11:49:08;100604.00;;;27.00
22322;BMP180;11328;53.928;18.522;2023-06-14T11:51:36;100609.00;;;27.20
22322;BMP180;11328;53.928;18.522;2023-06-14T11:54:06;100606.00;;;27.00
22322;BMP180;11328;53.928;18.522;2023-06-14T11:56:33;100610.00;;;27.10
22322;BMP180;11328;53.928;18.522;2023-06-14T11:59:03;100601.00;;;27.10
22322;BMP180;11328;53.928;18.522;2023-06-14T12:01:30;100594.00;;;27.40
22322;BMP180;11328;53.928;18.522;2023-06-14T12:03:59;100594.00;;;27.60
22322;BMP180;11328;53.928;18.522;2023-06-14T12:06:31;100598.00;;;27.40
22322;BMP180;11328;53.928;18.522;2023-06-14T12:09:04;100595.00;;;27.10
22322;BMP180;11328;53.928;18.522;2023-06-14T12:11:35;100603.00;;;26.70
22322;BMP180;11328;53.928;18.522;2023-06-14T12:14:04;100594.00;;;26.50
22322;BMP180;11328;53.928;18.522;2023-06-14T12:16:39;100593.00;;;26.80
22322;BMP180;11328;53.928;18.522;2023-06-14T12:19:15;100586.00;;;26.90
22322;BMP180;11328;53.928;18.522;2023-06-14T12:21:45;100591.00;;;27.00
22322;BMP180;11328;53.928;18.522;2023-06-14T12:24:14;100579.00;;;27.00
22322;BMP180;11328;53.928;18.522;2023-06-14T12:26:42;100579.00;;;27.00
22322;BMP180;11328;53.928;18.522;2023-06-14T12:29:09;100571.00;;;27.20
22322;BMP180;11328;53.928;18.522;2023-06-14T12:31:37;100571.00;;;27.20
22322;BMP180;11328;53.928;18.522;2023-06-14T12:34:04;100576.00;;;27.20
22322;BMP180;11328;53.928;18.522;2023-06-14T12:36:31;100578.00;;;27.20
22322;BMP180;11328;53.928;18.522;2023-06-14T12:38:58;100575.00;;;27.10
22322;BMP180;11328;53.928;18.522;2023-06-14T12:41:26;100574.00;;;27.10
22322;BMP180;11328;53.928;18.522;2023-06-14T12:43:54;100573.00;;;27.20
22322;BMP180;11328;53.928;18.522;2023-06-14T12:46:21;100569.00;;;27.20
22322;BMP180;11328;53.928;18.522;2023-06-14T12:48:48;100573.00;;;27.50
22322;BMP180;11328;53.928;18.522;2023-06-14T12:51:16;100569.00;;;27.80
22322;BMP180;11328;53.928;18.522;2023-06-14T12:53:43;100572.00;;;27.80
22322;BMP180;11328;53.928;18.522;2023-06-14T12:56:10;100580.00;;;27.70
22322;BMP180;11328;53.928;18.522;2023-06-14T12:58:37;100571.00;;;27.80
22322;BMP180;11328;53.928;18.522;2023-06-14T13:01:04;100567.00;;;27.90
22322;BMP180;11328;53.928;18.522;2023-06-14T13:03:31;100570.00;;;27.60
22322;BMP180;11328;53.928;18.522;2023-06-14T13:06:01;100567.00;;;27.60
22322;BMP180;11328;53.928;18.522;2023-06-14T13:08:29;100569.00;;;27.70
22322;BMP180;11328;53.928;18.522;2023-06-14T13:10:57;100560.00;;;27.90
22322;BMP180;11328;53.928;18.522;2023-06-14T13:13:24;100567.00;;;27.70
22322;BMP180;11328;53.928;18.522;2023-06-14T13:15:51;100579.00;;;27.40
22322;BMP180;11328;53.928;18.522;2023-06-14T13:18:18;100566.00;;;27.10
22322;BMP180;11328;53.928;18.522;2023-06-14T13:20:46;100565.00;;;26.90
22322;BMP180;11328;53.928;18.522;2023-06-14T13:23:15;100556.00;;;26.90
22322;BMP180;11328;53.928;18.522;2023-06-14T13:25:45;100569.00;;;27.20
22322;BMP180;11328;53.928;18.522;2023-06-14T13:28:12;100566.00;;;27.20
22322;BMP180;11328;53.928;18.522;2023-06-14T13:30:39;100564.00;;;27.20
22322;BMP180;11328;53.928;18.522;2023-06-14T13:33:06;100556.00;;;27.10
22322;BMP180;11328;53.928;18.522;2023-06-14T13:35:34;100545.00;;;27.20
22322;BMP180;11328;53.928;18.522;2023-06-14T13:38:01;100557.00;;;27.00
22322;BMP180;11328;53.928;18.522;2023-06-14T13:40:28;100557.00;;;27.10
22322;BMP180;11328;53.928;18.522;2023-06-14T13:42:55;100554.00;;;27.20
22322;BMP180;11328;53.928;18.522;2023-06-14T13:45:22;100562.00;;;27.20
22322;BMP180;11328;53.928;18.522;2023-06-14T13:47:49;100555.00;;;27.20
22322;BMP180;11328;53.928;18.522;2023-06-14T13:50:16;100557.00;;;27.20
22322;BMP180;11328;53.928;18.522;2023-06-14T13:52:44;100554.00;;;27.00
22322;BMP180;11328;53.928;18.522;2023-06-14T13:55:11;100557.00;;;27.10
22322;BMP180;11328;53.928;18.522;2023-06-14T13:57:38;100553.00;;;27.20
22322;BMP180;11328;53.928;18.522;2023-06-14T14:00:05;100555.00;;;27.10
22322;BMP180;11328;53.928;18.522;2023-06-14T14:02:32;100559.00;;;27.20
22322;BMP180;11328;53.928;18.522;2023-06-14T14:05:02;100554.00;;;27.00
22322;BMP180;11328;53.928;18.522;2023-06-14T14:07:29;100557.00;;;26.90
22322;BMP180;11328;53.928;18.522;2023-06-14T14:09:56;100548.00;;;26.70